This is the latest recevied weather packets stored in our database for station/object BV3BA-13. If no packets are shown the sender has not sent any weather packets the latest 10 day(s).
| Time | Temp. | Humidity | Pressure | Rain* | Wind** | Luminosity | Snow |
|---|---|---|---|---|---|---|---|
| 1777910223 | 18.33° C | 82% | 1011.6 hPa | 0 mm | - | - | - |
| 1777909024 | 18.33° C | 81% | 1011.9 hPa | 0 mm | - | - | - |
| 1777908424 | 18.33° C | 81% | 1011.8 hPa | 0 mm | - | - | - |
| 1777907224 | 17.78° C | 83% | 1012.1 hPa | 0 mm | - | - | - |
| 1777906623 | 17.78° C | 82% | 1012.3 hPa | 0 mm | - | - | - |
| 1777905424 | 17.78° C | 81% | 1012.6 hPa | 0 mm | - | - | - |
| 1777903623 | 17.78° C | 83% | 1012.6 hPa | 0 mm | - | - | - |
| 1777901824 | 17.78° C | 83% | 1012.6 hPa | 0 mm | - | - | - |
| 1777901223 | 17.78° C | 82% | 1012.7 hPa | 0 mm | - | - | - |
| 1777900623 | 17.78° C | 82% | 1012.8 hPa | 0 mm | - | - | - |
| 1777900023 | 17.22° C | 84% | 1012.8 hPa | 0.51 mm | - | - | - |
| 1777899424 | 17.22° C | 85% | 1012.6 hPa | 0.51 mm | - | - | - |
| 1777898824 | 17.22° C | 83% | 1012.6 hPa | 0.51 mm | - | - | - |
| 1777898224 | 17.22° C | 83% | 1012.8 hPa | 0.51 mm | - | - | - |
| 1777897624 | 17.22° C | 82% | 1013 hPa | 0.51 mm | - | - | - |
| 1777897023 | 17.22° C | 82% | 1013.2 hPa | 1.02 mm | - | - | - |
| 1777896424 | 17.22° C | 81% | 1013.4 hPa | 0.51 mm | - | - | - |
| 1777895824 | 17.22° C | 83% | 1013.3 hPa | 1.02 mm | - | - | - |
| 1777894624 | 17.22° C | 85% | 1013.3 hPa | 1.52 mm | - | - | - |
| 1777894023 | 17.22° C | 87% | 1013.2 hPa | 1.52 mm | - | - | - |
| 1777893424 | 17.22° C | 83% | 1013 hPa | 1.52 mm | - | - | - |
| 1777892823 | 17.22° C | 82% | 1012.9 hPa | 2.03 mm | - | - | - |
| 1777892223 | 17.78° C | 77% | 1012.7 hPa | 1.52 mm | - | - | - |
| 1777891023 | 17.78° C | 76% | 1012.5 hPa | 1.02 mm | - | - | - |
| 1777890423 | 18.33° C | 73% | 1012.4 hPa | 1.02 mm | - | - | - |
* Rain latest hour (hover to see other rain measurements)
** Current wind speed in m/s (hover to see current wind gust speed)